CD14 weather

J & S Airport
Bennett, Colorado, United States

Public forecast

Using degrees Fahrenheit for public forecast. Weather courtesy of forecast.io.

METAR (pilot weather report)

Closest report is Front Range Airport, 5.5 nm (10.3 km) WSW. Retrieved 2019/04/22 20:52 UTC (47 minutes ago):

KFTG 222052Z 06005KT 10SM OVC011 07/04 A3029

TAF (pilot weather forecast)

Closest forecast is Denver International Airport, 11.1 nm (20.5 km) W. Retrieved 2019/04/22 18:51 UTC (3 hours ago):

TAF KDEN 221748Z 2218/2324 03009KT P6SM BKN006 OVC015 FM222000 03009KT P6SM SCT008 OVC015 FM222200 03007KT P6SM SCT015 OVC025 FM230300 13005KT P6SM BKN025 FM231200 16005KT P6SM SCT030 BKN060 FM231600 19005KT P6SM SCT060 FM232000 10007KT P6SM SCT080